sensor_id;sensor_type;location;lat;lon;timestamp;P1;durP1;ratioP1;P2;durP2;ratioP2
16892;SDS011;8563;52.242;9.098;2023-05-08T00:00:23;4.30;;;3.90;;
16892;SDS011;8563;52.242;9.098;2023-05-08T00:02:55;4.90;;;4.43;;
16892;SDS011;8563;52.242;9.098;2023-05-08T00:05:28;4.13;;;3.83;;
16892;SDS011;8563;52.242;9.098;2023-05-08T00:08:00;6.27;;;4.70;;
16892;SDS011;8563;52.242;9.098;2023-05-08T00:10:34;5.30;;;4.80;;
16892;SDS011;8563;52.242;9.098;2023-05-08T00:13:07;5.30;;;4.80;;
16892;SDS011;8563;52.242;9.098;2023-05-08T00:15:40;4.53;;;4.13;;
16892;SDS011;8563;52.242;9.098;2023-05-08T00:18:12;5.30;;;4.87;;
16892;SDS011;8563;52.242;9.098;2023-05-08T00:20:45;4.93;;;4.47;;
16892;SDS011;8563;52.242;9.098;2023-05-08T00:23:18;4.93;;;4.43;;
16892;SDS011;8563;52.242;9.098;2023-05-08T00:25:53;4.60;;;4.20;;
16892;SDS011;8563;52.242;9.098;2023-05-08T00:28:25;4.63;;;4.23;;
16892;SDS011;8563;52.242;9.098;2023-05-08T00:30:58;5.50;;;5.00;;
16892;SDS011;8563;52.242;9.098;2023-05-08T00:33:31;6.70;;;4.90;;
16892;SDS011;8563;52.242;9.098;2023-05-08T00:36:04;4.80;;;4.40;;
16892;SDS011;8563;52.242;9.098;2023-05-08T00:38:37;5.23;;;4.83;;
16892;SDS011;8563;52.242;9.098;2023-05-08T00:41:10;4.17;;;3.87;;
16892;SDS011;8563;52.242;9.098;2023-05-08T00:43:43;5.07;;;4.60;;
16892;SDS011;8563;52.242;9.098;2023-05-08T00:46:15;5.10;;;4.70;;
16892;SDS011;8563;52.242;9.098;2023-05-08T00:48:48;5.37;;;4.97;;
16892;SDS011;8563;52.242;9.098;2023-05-08T00:51:20;5.30;;;4.90;;
16892;SDS011;8563;52.242;9.098;2023-05-08T00:53:54;5.57;;;5.13;;
16892;SDS011;8563;52.242;9.098;2023-05-08T00:56:28;8.47;;;5.20;;
16892;SDS011;8563;52.242;9.098;2023-05-08T00:59:00;5.83;;;4.90;;
16892;SDS011;8563;52.242;9.098;2023-05-08T01:01:34;5.80;;;5.30;;
16892;SDS011;8563;52.242;9.098;2023-05-08T01:04:08;6.67;;;5.20;;
16892;SDS011;8563;52.242;9.098;2023-05-08T01:06:41;5.53;;;4.83;;
16892;SDS011;8563;52.242;9.098;2023-05-08T01:09:13;6.00;;;5.50;;
16892;SDS011;8563;52.242;9.098;2023-05-08T01:11:48;6.00;;;5.47;;
16892;SDS011;8563;52.242;9.098;2023-05-08T01:14:24;5.90;;;5.40;;
16892;SDS011;8563;52.242;9.098;2023-05-08T01:17:01;6.53;;;5.80;;
16892;SDS011;8563;52.242;9.098;2023-05-08T01:19:41;5.73;;;5.13;;
16892;SDS011;8563;52.242;9.098;2023-05-08T01:22:17;6.20;;;5.60;;
16892;SDS011;8563;52.242;9.098;2023-05-08T01:24:57;6.53;;;5.93;;
16892;SDS011;8563;52.242;9.098;2023-05-08T01:30:36;5.90;;;5.40;;
16892;SDS011;8563;52.242;9.098;2023-05-08T01:33:18;8.07;;;6.10;;
16892;SDS011;8563;52.242;9.098;2023-05-08T01:35:52;6.30;;;5.80;;
16892;SDS011;8563;52.242;9.098;2023-05-08T01:38:26;6.07;;;5.30;;
16892;SDS011;8563;52.242;9.098;2023-05-08T01:41:02;6.03;;;5.37;;
16892;SDS011;8563;52.242;9.098;2023-05-08T01:43:38;6.30;;;5.70;;
16892;SDS011;8563;52.242;9.098;2023-05-08T01:46:15;6.13;;;5.47;;
16892;SDS011;8563;52.242;9.098;2023-05-08T01:48:50;6.33;;;5.83;;
16892;SDS011;8563;52.242;9.098;2023-05-08T01:51:25;6.43;;;5.93;;
16892;SDS011;8563;52.242;9.098;2023-05-08T01:53:59;6.87;;;6.17;;
16892;SDS011;8563;52.242;9.098;2023-05-08T01:56:33;8.63;;;5.97;;
16892;SDS011;8563;52.242;9.098;2023-05-08T01:59:07;6.50;;;5.90;;
16892;SDS011;8563;52.242;9.098;2023-05-08T02:01:40;6.30;;;5.70;;
16892;SDS011;8563;52.242;9.098;2023-05-08T02:04:14;6.70;;;6.10;;
16892;SDS011;8563;52.242;9.098;2023-05-08T02:06:48;5.80;;;5.30;;
16892;SDS011;8563;52.242;9.098;2023-05-08T02:09:20;6.53;;;5.93;;
16892;SDS011;8563;52.242;9.098;2023-05-08T02:11:53;6.40;;;5.80;;
16892;SDS011;8563;52.242;9.098;2023-05-08T02:14:26;6.47;;;5.93;;
16892;SDS011;8563;52.242;9.098;2023-05-08T02:16:59;5.50;;;5.00;;
16892;SDS011;8563;52.242;9.098;2023-05-08T02:19:34;6.07;;;5.57;;
16892;SDS011;8563;52.242;9.098;2023-05-08T02:22:08;6.03;;;5.53;;
16892;SDS011;8563;52.242;9.098;2023-05-08T02:24:40;6.33;;;5.83;;
16892;SDS011;8563;52.242;9.098;2023-05-08T02:27:14;6.40;;;5.77;;
16892;SDS011;8563;52.242;9.098;2023-05-08T02:29:47;6.50;;;5.93;;
16892;SDS011;8563;52.242;9.098;2023-05-08T02:32:20;6.27;;;5.77;;
16892;SDS011;8563;52.242;9.098;2023-05-08T02:34:56;6.37;;;5.77;;
16892;SDS011;8563;52.242;9.098;2023-05-08T02:37:29;8.10;;;6.00;;
16892;SDS011;8563;52.242;9.098;2023-05-08T02:40:02;5.83;;;5.33;;
16892;SDS011;8563;52.242;9.098;2023-05-08T02:42:36;5.73;;;5.23;;
16892;SDS011;8563;52.242;9.098;2023-05-08T02:45:09;6.27;;;5.77;;
16892;SDS011;8563;52.242;9.098;2023-05-08T02:47:48;7.43;;;6.00;;
16892;SDS011;8563;52.242;9.098;2023-05-08T02:50:28;7.20;;;6.50;;
16892;SDS011;8563;52.242;9.098;2023-05-08T02:53:05;6.50;;;6.00;;
16892;SDS011;8563;52.242;9.098;2023-05-08T02:55:41;6.67;;;6.17;;
16892;SDS011;8563;52.242;9.098;2023-05-08T02:58:16;6.90;;;6.00;;
16892;SDS011;8563;52.242;9.098;2023-05-08T03:00:51;6.37;;;5.80;;
16892;SDS011;8563;52.242;9.098;2023-05-08T03:03:29;6.40;;;5.90;;
16892;SDS011;8563;52.242;9.098;2023-05-08T03:06:06;6.90;;;6.03;;
16892;SDS011;8563;52.242;9.098;2023-05-08T03:08:41;7.53;;;6.73;;
16892;SDS011;8563;52.242;9.098;2023-05-08T03:11:15;6.90;;;6.30;;
16892;SDS011;8563;52.242;9.098;2023-05-08T03:13:49;6.67;;;6.07;;
16892;SDS011;8563;52.242;9.098;2023-05-08T03:16:23;6.60;;;6.00;;
16892;SDS011;8563;52.242;9.098;2023-05-08T03:18:57;6.90;;;6.30;;
16892;SDS011;8563;52.242;9.098;2023-05-08T03:21:32;7.17;;;6.47;;
16892;SDS011;8563;52.242;9.098;2023-05-08T03:24:06;6.90;;;6.30;;
16892;SDS011;8563;52.242;9.098;2023-05-08T03:26:40;6.97;;;6.37;;
16892;SDS011;8563;52.242;9.098;2023-05-08T03:29:13;7.13;;;6.53;;
16892;SDS011;8563;52.242;9.098;2023-05-08T03:31:47;7.53;;;6.27;;
16892;SDS011;8563;52.242;9.098;2023-05-08T03:34:22;7.13;;;6.53;;
16892;SDS011;8563;52.242;9.098;2023-05-08T03:36:56;7.13;;;6.53;;
16892;SDS011;8563;52.242;9.098;2023-05-08T03:39:29;7.10;;;6.40;;
16892;SDS011;8563;52.242;9.098;2023-05-08T03:42:01;6.63;;;6.13;;
16892;SDS011;8563;52.242;9.098;2023-05-08T03:44:34;6.93;;;6.27;;
16892;SDS011;8563;52.242;9.098;2023-05-08T03:47:07;6.87;;;6.37;;
16892;SDS011;8563;52.242;9.098;2023-05-08T03:49:40;7.63;;;6.93;;
16892;SDS011;8563;52.242;9.098;2023-05-08T03:52:14;7.43;;;6.83;;
16892;SDS011;8563;52.242;9.098;2023-05-08T03:54:46;7.40;;;6.80;;
16892;SDS011;8563;52.242;9.098;2023-05-08T03:57:19;7.10;;;6.50;;
16892;SDS011;8563;52.242;9.098;2023-05-08T03:59:53;7.67;;;7.07;;
16892;SDS011;8563;52.242;9.098;2023-05-08T04:02:32;6.87;;;6.30;;
16892;SDS011;8563;52.242;9.098;2023-05-08T04:05:09;7.67;;;6.80;;
16892;SDS011;8563;52.242;9.098;2023-05-08T04:07:50;7.30;;;6.70;;
16892;SDS011;8563;52.242;9.098;2023-05-08T04:10:31;7.07;;;6.47;;
16892;SDS011;8563;52.242;9.098;2023-05-08T04:13:05;8.30;;;7.57;;
16892;SDS011;8563;52.242;9.098;2023-05-08T04:15:42;7.40;;;6.70;;
16892;SDS011;8563;52.242;9.098;2023-05-08T04:18:16;7.37;;;6.43;;
16892;SDS011;8563;52.242;9.098;2023-05-08T04:20:49;7.80;;;7.07;;
16892;SDS011;8563;52.242;9.098;2023-05-08T04:23:23;9.33;;;7.17;;
16892;SDS011;8563;52.242;9.098;2023-05-08T04:25:56;7.50;;;6.80;;
16892;SDS011;8563;52.242;9.098;2023-05-08T04:28:32;7.67;;;6.20;;
16892;SDS011;8563;52.242;9.098;2023-05-08T04:31:05;8.07;;;7.37;;
16892;SDS011;8563;52.242;9.098;2023-05-08T04:33:38;7.23;;;6.63;;
16892;SDS011;8563;52.242;9.098;2023-05-08T04:36:12;7.23;;;6.60;;
16892;SDS011;8563;52.242;9.098;2023-05-08T04:38:48;8.37;;;7.57;;
16892;SDS011;8563;52.242;9.098;2023-05-08T04:41:20;7.83;;;7.13;;
16892;SDS011;8563;52.242;9.098;2023-05-08T04:43:53;7.60;;;6.90;;
16892;SDS011;8563;52.242;9.098;2023-05-08T04:46:25;7.33;;;6.73;;
16892;SDS011;8563;52.242;9.098;2023-05-08T04:48:58;7.60;;;6.93;;
16892;SDS011;8563;52.242;9.098;2023-05-08T04:51:32;7.63;;;6.80;;
16892;SDS011;8563;52.242;9.098;2023-05-08T04:54:07;7.37;;;6.67;;
16892;SDS011;8563;52.242;9.098;2023-05-08T04:56:39;7.40;;;6.73;;
16892;SDS011;8563;52.242;9.098;2023-05-08T04:59:11;8.23;;;7.47;;
16892;SDS011;8563;52.242;9.098;2023-05-08T05:01:45;7.30;;;6.70;;
16892;SDS011;8563;52.242;9.098;2023-05-08T05:04:17;8.17;;;7.40;;
16892;SDS011;8563;52.242;9.098;2023-05-08T05:06:51;8.57;;;7.77;;
16892;SDS011;8563;52.242;9.098;2023-05-08T05:09:25;7.93;;;7.23;;
16892;SDS011;8563;52.242;9.098;2023-05-08T05:11:58;8.07;;;7.37;;
16892;SDS011;8563;52.242;9.098;2023-05-08T05:14:30;7.70;;;7.00;;
16892;SDS011;8563;52.242;9.098;2023-05-08T05:17:03;7.60;;;6.90;;
16892;SDS011;8563;52.242;9.098;2023-05-08T05:19:35;7.90;;;7.20;;
16892;SDS011;8563;52.242;9.098;2023-05-08T05:22:08;8.17;;;7.47;;
16892;SDS011;8563;52.242;9.098;2023-05-08T05:24:42;7.10;;;6.50;;
16892;SDS011;8563;52.242;9.098;2023-05-08T05:27:14;7.60;;;6.90;;
16892;SDS011;8563;52.242;9.098;2023-05-08T05:29:47;6.97;;;6.37;;
16892;SDS011;8563;52.242;9.098;2023-05-08T05:32:20;7.87;;;7.07;;
16892;SDS011;8563;52.242;9.098;2023-05-08T05:34:52;7.53;;;6.87;;
16892;SDS011;8563;52.242;9.098;2023-05-08T05:37:26;7.83;;;7.13;;
16892;SDS011;8563;52.242;9.098;2023-05-08T05:39:59;8.17;;;7.27;;
16892;SDS011;8563;52.242;9.098;2023-05-08T05:42:34;9.43;;;7.77;;
16892;SDS011;8563;52.242;9.098;2023-05-08T05:45:07;7.80;;;6.93;;
16892;SDS011;8563;52.242;9.098;2023-05-08T05:47:42;6.67;;;6.17;;
16892;SDS011;8563;52.242;9.098;2023-05-08T05:50:16;7.23;;;6.63;;
16892;SDS011;8563;52.242;9.098;2023-05-08T05:52:49;7.63;;;6.93;;
16892;SDS011;8563;52.242;9.098;2023-05-08T05:55:24;6.73;;;6.13;;
16892;SDS011;8563;52.242;9.098;2023-05-08T05:57:58;8.40;;;7.27;;
16892;SDS011;8563;52.242;9.098;2023-05-08T06:00:30;7.47;;;6.77;;
16892;SDS011;8563;52.242;9.098;2023-05-08T06:03:03;8.10;;;7.30;;
16892;SDS011;8563;52.242;9.098;2023-05-08T06:05:36;7.83;;;7.13;;
16892;SDS011;8563;52.242;9.098;2023-05-08T06:08:09;8.57;;;7.07;;
16892;SDS011;8563;52.242;9.098;2023-05-08T06:10:44;7.30;;;6.60;;
16892;SDS011;8563;52.242;9.098;2023-05-08T06:13:17;7.70;;;7.00;;
16892;SDS011;8563;52.242;9.098;2023-05-08T06:15:50;10.70;;;7.30;;
16892;SDS011;8563;52.242;9.098;2023-05-08T06:18:22;6.60;;;6.00;;
16892;SDS011;8563;52.242;9.098;2023-05-08T06:20:55;6.73;;;6.13;;
16892;SDS011;8563;52.242;9.098;2023-05-08T06:23:28;7.17;;;6.53;;
16892;SDS011;8563;52.242;9.098;2023-05-08T06:26:02;7.10;;;6.50;;
16892;SDS011;8563;52.242;9.098;2023-05-08T06:28:34;7.60;;;6.90;;
16892;SDS011;8563;52.242;9.098;2023-05-08T06:31:07;6.43;;;5.93;;
16892;SDS011;8563;52.242;9.098;2023-05-08T06:33:40;7.40;;;6.80;;
16892;SDS011;8563;52.242;9.098;2023-05-08T06:36:12;7.27;;;6.67;;
16892;SDS011;8563;52.242;9.098;2023-05-08T06:38:45;6.97;;;6.37;;
16892;SDS011;8563;52.242;9.098;2023-05-08T06:41:19;6.37;;;5.77;;
16892;SDS011;8563;52.242;9.098;2023-05-08T06:43:52;6.70;;;6.00;;
16892;SDS011;8563;52.242;9.098;2023-05-08T06:46:24;8.03;;;6.53;;
16892;SDS011;8563;52.242;9.098;2023-05-08T06:48:57;6.90;;;6.07;;
16892;SDS011;8563;52.242;9.098;2023-05-08T06:51:29;7.33;;;6.63;;
16892;SDS011;8563;52.242;9.098;2023-05-08T06:54:02;6.27;;;5.67;;
16892;SDS011;8563;52.242;9.098;2023-05-08T06:56:38;7.10;;;6.50;;
16892;SDS011;8563;52.242;9.098;2023-05-08T06:59:11;7.90;;;7.20;;
16892;SDS011;8563;52.242;9.098;2023-05-08T07:01:43;7.13;;;6.53;;
16892;SDS011;8563;52.242;9.098;2023-05-08T07:04:16;7.07;;;6.13;;
16892;SDS011;8563;52.242;9.098;2023-05-08T07:06:48;7.03;;;6.43;;
16892;SDS011;8563;52.242;9.098;2023-05-08T07:09:20;7.73;;;6.97;;
16892;SDS011;8563;52.242;9.098;2023-05-08T07:11:56;7.27;;;6.67;;
16892;SDS011;8563;52.242;9.098;2023-05-08T07:14:29;7.60;;;7.00;;
16892;SDS011;8563;52.242;9.098;2023-05-08T07:17:02;6.63;;;6.07;;
16892;SDS011;8563;52.242;9.098;2023-05-08T07:19:36;7.27;;;6.67;;
16892;SDS011;8563;52.242;9.098;2023-05-08T07:22:09;6.77;;;6.17;;
16892;SDS011;8563;52.242;9.098;2023-05-08T07:24:42;7.90;;;7.20;;
16892;SDS011;8563;52.242;9.098;2023-05-08T07:27:16;8.23;;;7.50;;
16892;SDS011;8563;52.242;9.098;2023-05-08T07:29:49;7.87;;;7.17;;
16892;SDS011;8563;52.242;9.098;2023-05-08T07:32:21;7.33;;;6.63;;
16892;SDS011;8563;52.242;9.098;2023-05-08T07:34:54;7.83;;;7.13;;
16892;SDS011;8563;52.242;9.098;2023-05-08T07:37:26;7.40;;;6.70;;
16892;SDS011;8563;52.242;9.098;2023-05-08T07:39:59;8.53;;;7.80;;
16892;SDS011;8563;52.242;9.098;2023-05-08T07:42:38;7.93;;;6.73;;
16892;SDS011;8563;52.242;9.098;2023-05-08T07:45:11;7.53;;;6.83;;
16892;SDS011;8563;52.242;9.098;2023-05-08T07:47:50;7.53;;;6.93;;
16892;SDS011;8563;52.242;9.098;2023-05-08T07:50:24;6.73;;;6.20;;
16892;SDS011;8563;52.242;9.098;2023-05-08T07:52:56;6.63;;;6.13;;
16892;SDS011;8563;52.242;9.098;2023-05-08T07:55:29;7.13;;;6.60;;
16892;SDS011;8563;52.242;9.098;2023-05-08T07:58:03;7.80;;;7.10;;
16892;SDS011;8563;52.242;9.098;2023-05-08T08:00:36;7.67;;;6.87;;
16892;SDS011;8563;52.242;9.098;2023-05-08T08:03:08;7.83;;;7.13;;
16892;SDS011;8563;52.242;9.098;2023-05-08T08:05:41;7.37;;;6.70;;
16892;SDS011;8563;52.242;9.098;2023-05-08T08:08:14;7.90;;;7.20;;
16892;SDS011;8563;52.242;9.098;2023-05-08T08:10:47;7.60;;;6.90;;
16892;SDS011;8563;52.242;9.098;2023-05-08T08:13:20;7.83;;;7.23;;
16892;SDS011;8563;52.242;9.098;2023-05-08T08:15:53;8.67;;;7.40;;
16892;SDS011;8563;52.242;9.098;2023-05-08T08:18:26;10.60;;;7.47;;
16892;SDS011;8563;52.242;9.098;2023-05-08T08:20:59;6.67;;;6.07;;
16892;SDS011;8563;52.242;9.098;2023-05-08T08:23:32;6.23;;;5.73;;
16892;SDS011;8563;52.242;9.098;2023-05-08T08:26:05;7.20;;;6.50;;
16892;SDS011;8563;52.242;9.098;2023-05-08T08:28:39;7.33;;;6.63;;
16892;SDS011;8563;52.242;9.098;2023-05-08T08:31:11;7.43;;;6.77;;
16892;SDS011;8563;52.242;9.098;2023-05-08T08:33:45;7.30;;;6.63;;
16892;SDS011;8563;52.242;9.098;2023-05-08T08:36:18;8.23;;;6.57;;
16892;SDS011;8563;52.242;9.098;2023-05-08T08:38:50;7.50;;;6.90;;
16892;SDS011;8563;52.242;9.098;2023-05-08T08:41:23;9.13;;;7.47;;
16892;SDS011;8563;52.242;9.098;2023-05-08T08:43:58;7.90;;;7.10;;
16892;SDS011;8563;52.242;9.098;2023-05-08T08:46:31;7.73;;;7.10;;
16892;SDS011;8563;52.242;9.098;2023-05-08T08:49:04;8.93;;;6.83;;
16892;SDS011;8563;52.242;9.098;2023-05-08T08:51:41;8.23;;;7.53;;
16892;SDS011;8563;52.242;9.098;2023-05-08T08:54:16;7.87;;;7.10;;
16892;SDS011;8563;52.242;9.098;2023-05-08T08:56:50;8.40;;;7.70;;
16892;SDS011;8563;52.242;9.098;2023-05-08T08:59:25;8.27;;;7.17;;
16892;SDS011;8563;52.242;9.098;2023-05-08T09:02:00;9.00;;;8.20;;
16892;SDS011;8563;52.242;9.098;2023-05-08T09:04:33;7.93;;;7.33;;
16892;SDS011;8563;52.242;9.098;2023-05-08T09:07:05;7.93;;;7.13;;
16892;SDS011;8563;52.242;9.098;2023-05-08T09:09:38;7.88;;;7.07;;
16892;SDS011;8563;52.242;9.098;2023-05-08T09:12:13;8.13;;;7.43;;
16892;SDS011;8563;52.242;9.098;2023-05-08T09:14:47;8.57;;;7.80;;
16892;SDS011;8563;52.242;9.098;2023-05-08T09:17:20;7.57;;;6.68;;
16892;SDS011;8563;52.242;9.098;2023-05-08T09:19:52;8.00;;;7.13;;
16892;SDS011;8563;52.242;9.098;2023-05-08T09:22:25;7.70;;;6.90;;
16892;SDS011;8563;52.242;9.098;2023-05-08T09:24:59;9.20;;;8.32;;
16892;SDS011;8563;52.242;9.098;2023-05-08T09:27:32;8.30;;;7.45;;
16892;SDS011;8563;52.242;9.098;2023-05-08T09:30:08;11.02;;;8.15;;
16892;SDS011;8563;52.242;9.098;2023-05-08T09:32:41;8.52;;;7.82;;
16892;SDS011;8563;52.242;9.098;2023-05-08T09:35:14;7.63;;;7.03;;
16892;SDS011;8563;52.242;9.098;2023-05-08T09:37:47;7.78;;;7.13;;
16892;SDS011;8563;52.242;9.098;2023-05-08T09:40:20;8.07;;;7.38;;
16892;SDS011;8563;52.242;9.098;2023-05-08T09:42:52;7.25;;;6.55;;
16892;SDS011;8563;52.242;9.098;2023-05-08T09:45:27;7.68;;;6.97;;
16892;SDS011;8563;52.242;9.098;2023-05-08T09:48:00;7.60;;;7.00;;
16892;SDS011;8563;52.242;9.098;2023-05-08T09:50:32;6.90;;;6.30;;
16892;SDS011;8563;52.242;9.098;2023-05-08T09:53:04;8.32;;;7.53;;
16892;SDS011;8563;52.242;9.098;2023-05-08T09:55:46;7.53;;;6.75;;
16892;SDS011;8563;52.242;9.098;2023-05-08T09:58:19;7.07;;;6.53;;
16892;SDS011;8563;52.242;9.098;2023-05-08T10:00:53;6.70;;;6.20;;
16892;SDS011;8563;52.242;9.098;2023-05-08T10:03:30;8.93;;;8.02;;
16892;SDS011;8563;52.242;9.098;2023-05-08T10:06:16;6.85;;;6.32;;
16892;SDS011;8563;52.242;9.098;2023-05-08T10:09:04;7.90;;;7.20;;
16892;SDS011;8563;52.242;9.098;2023-05-08T10:11:37;7.72;;;7.13;;
16892;SDS011;8563;52.242;9.098;2023-05-08T10:14:10;7.20;;;6.57;;
16892;SDS011;8563;52.242;9.098;2023-05-08T10:16:45;8.02;;;7.32;;
16892;SDS011;8563;52.242;9.098;2023-05-08T10:19:19;7.82;;;6.68;;
16892;SDS011;8563;52.242;9.098;2023-05-08T10:21:53;7.35;;;6.75;;
16892;SDS011;8563;52.242;9.098;2023-05-08T10:24:26;8.02;;;6.63;;
16892;SDS011;8563;52.242;9.098;2023-05-08T10:27:00;6.75;;;6.15;;
16892;SDS011;8563;52.242;9.098;2023-05-08T10:29:40;6.50;;;6.00;;
16892;SDS011;8563;52.242;9.098;2023-05-08T10:32:14;6.75;;;6.15;;
16892;SDS011;8563;52.242;9.098;2023-05-08T10:34:52;6.95;;;6.43;;
16892;SDS011;8563;52.242;9.098;2023-05-08T10:37:25;7.57;;;6.25;;
16892;SDS011;8563;52.242;9.098;2023-05-08T10:40:00;7.22;;;6.63;;
16892;SDS011;8563;52.242;9.098;2023-05-08T10:42:34;6.28;;;5.68;;
16892;SDS011;8563;52.242;9.098;2023-05-08T10:45:07;7.18;;;6.47;;
16892;SDS011;8563;52.242;9.098;2023-05-08T10:47:47;7.53;;;6.75;;
16892;SDS011;8563;52.242;9.098;2023-05-08T10:50:27;7.40;;;6.70;;
16892;SDS011;8563;52.242;9.098;2023-05-08T10:53:03;6.65;;;6.00;;
16892;SDS011;8563;52.242;9.098;2023-05-08T10:55:38;7.95;;;6.75;;
16892;SDS011;8563;52.242;9.098;2023-05-08T10:58:13;6.50;;;5.90;;
16892;SDS011;8563;52.242;9.098;2023-05-08T11:03:39;7.30;;;6.57;;
16892;SDS011;8563;52.242;9.098;2023-05-08T11:06:12;5.45;;;5.00;;
16892;SDS011;8563;52.242;9.098;2023-05-08T11:08:46;6.38;;;5.75;;
16892;SDS011;8563;52.242;9.098;2023-05-08T11:11:23;6.68;;;6.07;;
16892;SDS011;8563;52.242;9.098;2023-05-08T11:13:58;7.63;;;6.28;;
16892;SDS011;8563;52.242;9.098;2023-05-08T11:19:23;5.90;;;5.40;;
16892;SDS011;8563;52.242;9.098;2023-05-08T11:22:12;5.63;;;5.13;;
16892;SDS011;8563;52.242;9.098;2023-05-08T11:24:48;6.05;;;5.50;;
16892;SDS011;8563;52.242;9.098;2023-05-08T11:27:42;6.38;;;5.78;;
16892;SDS011;8563;52.242;9.098;2023-05-08T11:30:33;6.50;;;5.45;;
16892;SDS011;8563;52.242;9.098;2023-05-08T11:35:58;5.65;;;5.25;;
16892;SDS011;8563;52.242;9.098;2023-05-08T11:38:31;6.38;;;5.78;;
16892;SDS011;8563;52.242;9.098;2023-05-08T11:41:05;7.53;;;5.38;;
16892;SDS011;8563;52.242;9.098;2023-05-08T11:43:57;6.47;;;5.32;;
16892;SDS011;8563;52.242;9.098;2023-05-08T11:46:38;6.03;;;5.43;;
16892;SDS011;8563;52.242;9.098;2023-05-08T11:49:14;6.30;;;5.57;;
16892;SDS011;8563;52.242;9.098;2023-05-08T11:51:48;5.65;;;5.10;;
16892;SDS011;8563;52.242;9.098;2023-05-08T11:54:24;5.65;;;5.10;;
16892;SDS011;8563;52.242;9.098;2023-05-08T11:56:57;6.65;;;6.05;;
16892;SDS011;8563;52.242;9.098;2023-05-08T11:59:33;5.45;;;4.95;;
16892;SDS011;8563;52.242;9.098;2023-05-08T12:02:06;4.95;;;4.57;;
16892;SDS011;8563;52.242;9.098;2023-05-08T12:04:42;5.35;;;4.95;;
16892;SDS011;8563;52.242;9.098;2023-05-08T12:07:17;5.32;;;4.93;;
16892;SDS011;8563;52.242;9.098;2023-05-08T12:09:50;5.05;;;4.65;;
16892;SDS011;8563;52.242;9.098;2023-05-08T12:12:22;5.38;;;4.50;;
16892;SDS011;8563;52.242;9.098;2023-05-08T12:14:55;5.32;;;4.82;;
16892;SDS011;8563;52.242;9.098;2023-05-08T12:17:27;5.70;;;5.20;;
16892;SDS011;8563;52.242;9.098;2023-05-08T12:20:08;5.10;;;4.15;;
16892;SDS011;8563;52.242;9.098;2023-05-08T12:22:42;4.88;;;4.47;;
16892;SDS011;8563;52.242;9.098;2023-05-08T12:25:20;4.47;;;4.13;;
16892;SDS011;8563;52.242;9.098;2023-05-08T12:27:53;4.60;;;4.20;;
16892;SDS011;8563;52.242;9.098;2023-05-08T12:30:25;4.60;;;4.20;;
16892;SDS011;8563;52.242;9.098;2023-05-08T12:32:58;4.18;;;3.88;;
16892;SDS011;8563;52.242;9.098;2023-05-08T12:35:31;6.55;;;4.65;;
16892;SDS011;8563;52.242;9.098;2023-05-08T12:38:06;4.57;;;4.28;;
16892;SDS011;8563;52.242;9.098;2023-05-08T12:40:40;3.90;;;3.60;;
16892;SDS011;8563;52.242;9.098;2023-05-08T12:43:12;4.35;;;3.95;;
16892;SDS011;8563;52.242;9.098;2023-05-08T12:45:45;5.40;;;4.90;;
16892;SDS011;8563;52.242;9.098;2023-05-08T12:48:18;7.68;;;3.95;;
16892;SDS011;8563;52.242;9.098;2023-05-08T12:50:50;3.80;;;3.50;;
16892;SDS011;8563;52.242;9.098;2023-05-08T12:53:24;3.65;;;3.35;;
16892;SDS011;8563;52.242;9.098;2023-05-08T12:55:57;3.90;;;3.60;;
16892;SDS011;8563;52.242;9.098;2023-05-08T12:58:32;4.22;;;3.83;;
16892;SDS011;8563;52.242;9.098;2023-05-08T13:01:05;4.15;;;3.85;;
16892;SDS011;8563;52.242;9.098;2023-05-08T13:03:39;4.30;;;3.85;;
16892;SDS011;8563;52.242;9.098;2023-05-08T13:06:18;5.32;;;4.05;;
16892;SDS011;8563;52.242;9.098;2023-05-08T13:08:52;4.88;;;4.47;;
16892;SDS011;8563;52.242;9.098;2023-05-08T13:11:29;5.65;;;5.15;;
16892;SDS011;8563;52.242;9.098;2023-05-08T13:14:03;4.68;;;4.30;;
16892;SDS011;8563;52.242;9.098;2023-05-08T13:16:42;4.40;;;4.00;;
16892;SDS011;8563;52.242;9.098;2023-05-08T13:19:14;4.35;;;3.97;;
16892;SDS011;8563;52.242;9.098;2023-05-08T13:21:47;4.80;;;4.40;;
16892;SDS011;8563;52.242;9.098;2023-05-08T13:24:21;5.47;;;3.67;;
16892;SDS011;8563;52.242;9.098;2023-05-08T13:26:55;4.07;;;3.53;;
16892;SDS011;8563;52.242;9.098;2023-05-08T13:29:27;5.20;;;3.38;;
16892;SDS011;8563;52.242;9.098;2023-05-08T13:31:59;4.03;;;3.30;;
16892;SDS011;8563;52.242;9.098;2023-05-08T13:34:32;4.32;;;3.92;;
16892;SDS011;8563;52.242;9.098;2023-05-08T13:37:04;3.90;;;3.60;;
16892;SDS011;8563;52.242;9.098;2023-05-08T13:39:38;4.93;;;4.47;;
16892;SDS011;8563;52.242;9.098;2023-05-08T13:42:11;4.80;;;4.40;;
16892;SDS011;8563;52.242;9.098;2023-05-08T13:44:43;4.47;;;3.85;;
16892;SDS011;8563;52.242;9.098;2023-05-08T13:47:16;4.38;;;3.97;;
16892;SDS011;8563;52.242;9.098;2023-05-08T13:49:48;5.10;;;4.50;;
16892;SDS011;8563;52.242;9.098;2023-05-08T13:52:21;4.38;;;4.00;;
16892;SDS011;8563;52.242;9.098;2023-05-08T13:54:55;4.00;;;3.70;;
16892;SDS011;8563;52.242;9.098;2023-05-08T13:57:28;4.10;;;3.80;;
16892;SDS011;8563;52.242;9.098;2023-05-08T14:00:01;4.47;;;4.05;;
16892;SDS011;8563;52.242;9.098;2023-05-08T14:02:37;3.95;;;3.60;;
16892;SDS011;8563;52.242;9.098;2023-05-08T14:05:10;4.03;;;3.60;;
16892;SDS011;8563;52.242;9.098;2023-05-08T14:07:42;4.40;;;3.50;;
16892;SDS011;8563;52.242;9.098;2023-05-08T14:10:17;3.88;;;3.58;;
16892;SDS011;8563;52.242;9.098;2023-05-08T14:12:49;3.40;;;3.20;;
16892;SDS011;8563;52.242;9.098;2023-05-08T14:15:21;4.25;;;3.95;;
16892;SDS011;8563;52.242;9.098;2023-05-08T14:17:54;3.85;;;3.55;;
16892;SDS011;8563;52.242;9.098;2023-05-08T14:20:26;4.20;;;3.80;;
16892;SDS011;8563;52.242;9.098;2023-05-08T14:22:59;4.22;;;3.90;;
16892;SDS011;8563;52.242;9.098;2023-05-08T14:25:33;3.90;;;3.60;;
16892;SDS011;8563;52.242;9.098;2023-05-08T14:28:05;5.15;;;4.07;;
16892;SDS011;8563;52.242;9.098;2023-05-08T14:30:38;4.15;;;3.85;;
16892;SDS011;8563;52.242;9.098;2023-05-08T14:33:10;4.45;;;3.40;;
16892;SDS011;8563;52.242;9.098;2023-05-08T14:35:43;3.72;;;3.42;;
16892;SDS011;8563;52.242;9.098;2023-05-08T14:38:17;4.97;;;4.03;;
16892;SDS011;8563;52.242;9.098;2023-05-08T14:40:51;3.67;;;3.38;;
16892;SDS011;8563;52.242;9.098;2023-05-08T14:43:24;4.47;;;3.70;;
16892;SDS011;8563;52.242;9.098;2023-05-08T14:45:57;3.50;;;3.20;;
16892;SDS011;8563;52.242;9.098;2023-05-08T14:48:29;4.68;;;3.38;;
16892;SDS011;8563;52.242;9.098;2023-05-08T14:51:02;4.30;;;3.92;;
16892;SDS011;8563;52.242;9.098;2023-05-08T14:53:34;3.85;;;3.55;;
16892;SDS011;8563;52.242;9.098;2023-05-08T14:56:08;3.05;;;2.85;;
16892;SDS011;8563;52.242;9.098;2023-05-08T14:58:41;4.55;;;3.38;;
16892;SDS011;8563;52.242;9.098;2023-05-08T15:01:13;3.28;;;3.05;;
16892;SDS011;8563;52.242;9.098;2023-05-08T15:03:45;3.70;;;3.40;;
16892;SDS011;8563;52.242;9.098;2023-05-08T15:06:22;4.85;;;3.95;;
16892;SDS011;8563;52.242;9.098;2023-05-08T15:08:57;9.20;;;4.22;;
16892;SDS011;8563;52.242;9.098;2023-05-08T15:11:33;3.70;;;3.40;;
16892;SDS011;8563;52.242;9.098;2023-05-08T15:14:06;3.60;;;3.30;;
16892;SDS011;8563;52.242;9.098;2023-05-08T15:16:39;3.33;;;3.08;;
16892;SDS011;8563;52.242;9.098;2023-05-08T15:19:11;3.42;;;3.13;;
16892;SDS011;8563;52.242;9.098;2023-05-08T15:21:43;4.22;;;3.33;;
16892;SDS011;8563;52.242;9.098;2023-05-08T15:24:16;3.58;;;3.28;;
16892;SDS011;8563;52.242;9.098;2023-05-08T15:26:50;4.95;;;3.38;;
16892;SDS011;8563;52.242;9.098;2023-05-08T15:29:22;3.80;;;3.50;;
16892;SDS011;8563;52.242;9.098;2023-05-08T15:31:55;3.35;;;3.10;;
16892;SDS011;8563;52.242;9.098;2023-05-08T15:34:28;4.95;;;3.58;;
16892;SDS011;8563;52.242;9.098;2023-05-08T15:37:00;3.30;;;3.00;;
16892;SDS011;8563;52.242;9.098;2023-05-08T15:39:34;4.30;;;3.88;;
16892;SDS011;8563;52.242;9.098;2023-05-08T15:42:07;5.22;;;4.72;;
16892;SDS011;8563;52.242;9.098;2023-05-08T15:44:40;3.83;;;3.53;;
16892;SDS011;8563;52.242;9.098;2023-05-08T15:47:12;4.90;;;4.40;;
16892;SDS011;8563;52.242;9.098;2023-05-08T15:49:45;4.00;;;3.50;;
16892;SDS011;8563;52.242;9.098;2023-05-08T15:52:17;3.78;;;3.47;;